createdAt,value
2022-12-16T00:01:11.292Z,20.70
2022-12-16T00:03:40.457Z,23.27
2022-12-16T00:06:08.935Z,25.10
2022-12-16T00:08:37.695Z,22.53
2022-12-16T00:11:05.736Z,21.67
2022-12-16T00:13:35.144Z,22.50
2022-12-16T00:16:07.600Z,20.73
2022-12-16T00:19:01.431Z,22.67
2022-12-16T00:21:29.641Z,24.97
2022-12-16T00:23:58.006Z,25.87
2022-12-16T00:26:25.903Z,22.70
2022-12-16T00:28:53.474Z,21.80
2022-12-16T00:31:23.128Z,21.83
2022-12-16T00:33:52.790Z,21.63
2022-12-16T00:36:20.316Z,21.83
2022-12-16T00:38:47.877Z,24.60
2022-12-16T00:41:15.605Z,22.93
2022-12-16T00:43:43.128Z,24.30
2022-12-16T00:46:10.751Z,26.07
2022-12-16T00:48:38.421Z,22.00
2022-12-16T00:51:06.049Z,22.90
2022-12-16T00:53:33.889Z,22.23
2022-12-16T00:56:02.589Z,24.77
2022-12-16T00:58:30.138Z,19.47
2022-12-16T01:00:58.040Z,23.60
2022-12-16T01:03:25.826Z,22.77
2022-12-16T01:05:53.493Z,22.37
2022-12-16T01:08:21.819Z,22.27
2022-12-16T01:10:56.988Z,21.67
2022-12-16T01:13:25.741Z,22.97
2022-12-16T01:15:53.639Z,25.10
2022-12-16T01:18:22.165Z,24.87
2022-12-16T01:20:49.981Z,27.00
2022-12-16T01:23:18.165Z,23.60
2022-12-16T01:25:45.821Z,26.63
2022-12-16T01:28:13.881Z,21.80
2022-12-16T01:30:41.460Z,21.97
2022-12-16T01:33:09.918Z,23.47
2022-12-16T01:35:55.097Z,21.47
2022-12-16T01:38:23.742Z,22.50
2022-12-16T01:40:51.902Z,24.03
2022-12-16T01:43:20.960Z,24.90
2022-12-16T01:45:49.162Z,22.47
2022-12-16T01:48:26.271Z,19.60
2022-12-16T01:50:56.953Z,21.03
2022-12-16T01:53:24.992Z,24.30
2022-12-16T01:55:53.500Z,24.17
2022-12-16T01:58:26.220Z,23.67
2022-12-16T02:00:54.586Z,20.20
2022-12-16T02:03:22.682Z,26.40
2022-12-16T02:05:51.268Z,20.50
2022-12-16T02:08:20.617Z,21.27
2022-12-16T02:10:53.873Z,24.20
2022-12-16T02:13:24.146Z,22.27
2022-12-16T02:16:16.644Z,23.63
2022-12-16T02:18:55.269Z,23.30
2022-12-16T02:21:38.151Z,27.97
2022-12-16T02:24:14.640Z,20.07
2022-12-16T02:27:01.882Z,28.40
2022-12-16T02:29:48.383Z,20.40
2022-12-16T02:32:27.154Z,23.93
2022-12-16T02:35:00.212Z,22.77
2022-12-16T02:37:46.940Z,22.57
2022-12-16T02:40:24.572Z,23.13
2022-12-16T02:42:54.854Z,26.13
2022-12-16T02:45:27.813Z,25.17
2022-12-16T02:47:55.501Z,27.00
2022-12-16T02:50:43.441Z,22.30
2022-12-16T02:53:11.244Z,22.20
2022-12-16T02:55:44.957Z,23.57
2022-12-16T02:58:28.649Z,26.23
2022-12-16T03:00:59.312Z,24.03
2022-12-16T03:03:31.570Z,29.50
2022-12-16T03:06:01.275Z,25.40
2022-12-16T03:08:34.057Z,21.00
2022-12-16T03:11:03.942Z,26.40
2022-12-16T03:13:34.044Z,21.37
2022-12-16T03:16:03.263Z,26.93
2022-12-16T03:18:31.016Z,24.90
2022-12-16T03:21:03.466Z,24.90
2022-12-16T03:23:51.891Z,26.07
2022-12-16T03:26:22.334Z,22.70
2022-12-16T03:28:56.563Z,24.23
2022-12-16T03:31:39.685Z,23.87
2022-12-16T03:34:16.720Z,22.30
2022-12-16T03:36:45.241Z,24.10
2022-12-16T03:39:12.792Z,27.83
2022-12-16T03:41:40.431Z,28.87
2022-12-16T03:44:08.466Z,27.40
2022-12-16T03:46:36.287Z,28.37
2022-12-16T03:49:03.972Z,24.73
2022-12-16T03:51:31.555Z,27.40
2022-12-16T03:53:59.113Z,25.50
2022-12-16T03:56:26.668Z,25.83
2022-12-16T03:58:54.245Z,25.80
2022-12-16T04:01:23.186Z,26.03
2022-12-16T04:03:51.165Z,25.17
2022-12-16T04:06:19.161Z,27.30
2022-12-16T04:08:47.113Z,20.67
2022-12-16T04:11:34.485Z,27.33
2022-12-16T04:14:21.751Z,22.60
2022-12-16T04:17:08.641Z,26.90
2022-12-16T04:19:57.056Z,23.50
2022-12-16T04:22:49.913Z,23.37
2022-12-16T04:25:19.439Z,21.60
2022-12-16T04:27:47.202Z,28.87
2022-12-16T04:30:18.914Z,22.40
2022-12-16T04:33:17.367Z,23.30
2022-12-16T04:36:04.079Z,25.93
2022-12-16T04:38:50.959Z,22.73
2022-12-16T04:41:37.494Z,25.47
2022-12-16T04:44:24.051Z,28.67
2022-12-16T04:47:10.537Z,25.87
2022-12-16T04:49:57.020Z,29.00
2022-12-16T04:52:43.779Z,25.77
2022-12-16T04:55:30.644Z,24.37
2022-12-16T04:58:18.768Z,28.73
2022-12-16T05:01:05.821Z,24.67
2022-12-16T05:03:53.207Z,28.83
2022-12-16T05:06:40.123Z,31.40
2022-12-16T05:09:26.702Z,29.27
2022-12-16T05:12:13.714Z,37.37
2022-12-16T05:15:00.227Z,31.70
2022-12-16T05:17:46.649Z,34.10
2022-12-16T05:20:33.205Z,25.97
2022-12-16T05:23:19.545Z,21.60
2022-12-16T05:26:10.050Z,26.60
2022-12-16T05:28:56.520Z,26.40
2022-12-16T05:31:42.905Z,23.60
2022-12-16T05:34:29.497Z,23.03
2022-12-16T05:37:41.582Z,28.17
2022-12-16T05:40:28.940Z,26.33
2022-12-16T05:43:17.006Z,24.17
2022-12-16T05:46:03.803Z,23.27
2022-12-16T05:48:50.371Z,40.47
2022-12-16T05:51:36.763Z,24.93
2022-12-16T05:54:23.335Z,28.83
2022-12-16T05:57:09.455Z,23.30
2022-12-16T05:59:55.952Z,22.93
2022-12-16T06:02:42.545Z,26.27
2022-12-16T06:05:29.844Z,27.40
2022-12-16T06:08:16.224Z,23.90
2022-12-16T06:11:02.617Z,28.03
2022-12-16T06:13:49.340Z,26.33
2022-12-16T06:16:35.910Z,19.07
2022-12-16T06:19:26.735Z,24.80
2022-12-16T06:22:13.258Z,24.73
2022-12-16T06:24:59.449Z,17.23
2022-12-16T06:27:45.647Z,26.50
2022-12-16T06:30:32.175Z,23.70
2022-12-16T06:33:18.454Z,28.13
2022-12-16T06:36:05.325Z,22.67
2022-12-16T06:38:51.693Z,24.97
2022-12-16T06:41:38.076Z,25.00
2022-12-16T06:44:24.462Z,25.67
2022-12-16T06:47:11.031Z,26.73
2022-12-16T06:49:57.489Z,25.57
2022-12-16T06:52:43.868Z,22.80
2022-12-16T06:55:30.530Z,26.67
2022-12-16T06:58:20.625Z,26.23
2022-12-16T07:01:06.952Z,28.50
2022-12-16T07:03:53.415Z,29.17
2022-12-16T07:06:39.639Z,24.20
2022-12-16T07:09:25.844Z,24.60
2022-12-16T07:12:23.152Z,23.83
2022-12-16T07:15:09.868Z,28.40
2022-12-16T07:17:56.595Z,30.13
2022-12-16T07:20:43.061Z,27.77
2022-12-16T07:23:29.903Z,24.37
2022-12-16T07:26:16.404Z,26.77
2022-12-16T07:29:03.021Z,24.23
2022-12-16T07:31:49.535Z,24.30
2022-12-16T07:34:40.817Z,26.50
2022-12-16T07:37:29.507Z,25.47
2022-12-16T07:40:15.689Z,36.95
2022-12-16T07:43:02.528Z,30.07
2022-12-16T07:45:49.281Z,29.10
2022-12-16T07:48:35.799Z,23.77
2022-12-16T07:51:22.643Z,24.70
2022-12-16T07:54:09.248Z,29.80
2022-12-16T07:56:56.197Z,27.97
2022-12-16T07:59:42.589Z,28.03
2022-12-16T08:02:29.777Z,29.03
2022-12-16T08:05:16.689Z,26.83
2022-12-16T08:08:03.432Z,23.10
2022-12-16T08:10:50.221Z,26.07
2022-12-16T08:13:37.659Z,31.07
2022-12-16T08:16:25.235Z,23.40
2022-12-16T08:19:11.867Z,25.43
2022-12-16T08:21:59.129Z,30.10
2022-12-16T08:24:51.336Z,26.80
2022-12-16T08:27:39.663Z,27.57
2022-12-16T08:30:26.333Z,31.17
2022-12-16T08:33:18.800Z,28.97
2022-12-16T08:36:08.672Z,27.37
2022-12-16T08:38:55.800Z,26.20
2022-12-16T08:41:42.693Z,24.70
2022-12-16T08:44:39.713Z,28.57
2022-12-16T08:47:26.373Z,25.60
2022-12-16T08:50:13.192Z,22.90
2022-12-16T08:52:59.528Z,31.20
2022-12-16T08:55:45.750Z,26.23
2022-12-16T08:58:32.142Z,34.33
2022-12-16T09:01:18.629Z,29.73
2022-12-16T09:04:05.517Z,41.10
2022-12-16T09:06:51.932Z,36.90
2022-12-16T09:09:38.745Z,34.17
2022-12-16T09:12:25.186Z,31.03
2022-12-16T09:15:11.922Z,37.30
2022-12-16T09:17:58.678Z,30.17
2022-12-16T09:20:45.856Z,30.90
2022-12-16T09:23:32.652Z,33.27
2022-12-16T09:26:19.275Z,31.67
2022-12-16T09:29:05.508Z,28.77
2022-12-16T09:31:52.115Z,31.17
2022-12-16T09:34:38.380Z,31.03
2022-12-16T09:37:26.396Z,32.05
2022-12-16T09:40:13.345Z,32.47
2022-12-16T09:43:35.577Z,38.03
2022-12-16T09:46:34.667Z,30.13
2022-12-16T09:49:21.985Z,30.50
2022-12-16T09:52:12.502Z,28.77
2022-12-16T09:55:05.126Z,37.13
2022-12-16T09:57:53.979Z,35.00
2022-12-16T10:00:44.407Z,35.85
2022-12-16T10:03:46.644Z,32.90
2022-12-16T10:06:46.951Z,34.47
2022-12-16T10:09:40.420Z,37.10
2022-12-16T10:12:45.862Z,30.20
2022-12-16T10:15:38.884Z,36.63
2022-12-16T10:18:32.978Z,29.60
2022-12-16T10:21:19.421Z,30.80
2022-12-16T10:24:16.383Z,39.27
2022-12-16T10:27:13.339Z,34.07
2022-12-16T10:30:02.193Z,32.73
2022-12-16T10:32:54.851Z,34.10
2022-12-16T10:35:44.158Z,33.83
2022-12-16T10:38:49.732Z,36.23
2022-12-16T10:41:36.144Z,37.60
2022-12-16T10:44:26.354Z,33.97
2022-12-16T10:47:14.713Z,34.50
2022-12-16T10:50:01.024Z,33.50
2022-12-16T10:52:47.407Z,33.13
2022-12-16T10:55:50.884Z,37.33
2022-12-16T10:58:55.821Z,35.27
2022-12-16T11:01:44.492Z,35.50
2022-12-16T11:04:51.548Z,32.87
2022-12-16T11:07:46.833Z,32.10
2022-12-16T11:10:42.443Z,39.67
2022-12-16T11:13:41.192Z,40.37
2022-12-16T11:16:41.577Z,34.60
2022-12-16T11:19:40.104Z,36.20
2022-12-16T11:22:27.641Z,32.07
2022-12-16T11:25:24.595Z,32.53
2022-12-16T11:28:21.537Z,32.93
2022-12-16T11:31:12.138Z,35.10
2022-12-16T11:33:59.314Z,32.90
2022-12-16T11:36:46.216Z,36.07
2022-12-16T11:39:40.144Z,34.13
2022-12-16T11:42:29.824Z,39.07
2022-12-16T11:45:17.855Z,33.80
2022-12-16T11:48:05.538Z,37.30
2022-12-16T11:50:55.477Z,39.60
2022-12-16T11:53:58.932Z,33.10
2022-12-16T11:56:46.183Z,38.17
2022-12-16T11:59:42.593Z,36.90
2022-12-16T12:02:37.784Z,36.07
2022-12-16T12:05:24.296Z,39.80
2022-12-16T12:08:10.687Z,36.97
2022-12-16T12:11:09.303Z,30.50
2022-12-16T12:13:56.105Z,34.33
2022-12-16T12:16:50.102Z,35.30
2022-12-16T12:19:49.590Z,40.47
2022-12-16T12:22:52.596Z,41.20
2022-12-16T12:25:41.516Z,34.30
2022-12-16T12:28:34.529Z,38.60
2022-12-16T12:31:38.957Z,38.60
2022-12-16T12:34:32.789Z,39.17
2022-12-16T12:37:26.640Z,34.77
2022-12-16T12:40:18.856Z,30.07
2022-12-16T12:43:07.313Z,32.40
2022-12-16T12:45:54.172Z,32.37
2022-12-16T12:48:40.735Z,35.40
2022-12-16T12:51:34.169Z,35.73
2022-12-16T12:54:33.466Z,40.23
2022-12-16T12:57:22.048Z,32.97
2022-12-16T13:00:11.182Z,36.63
2022-12-16T13:03:03.067Z,34.43
2022-12-16T13:05:52.007Z,32.30
2022-12-16T13:08:57.095Z,38.37
2022-12-16T13:11:43.750Z,35.40
2022-12-16T13:14:49.075Z,34.30
2022-12-16T13:17:39.542Z,29.70
2022-12-16T13:20:46.671Z,30.07
2022-12-16T13:23:47.549Z,32.63
2022-12-16T13:26:38.646Z,31.07
2022-12-16T13:29:38.827Z,36.97
2022-12-16T13:32:36.274Z,32.87
2022-12-16T13:35:24.371Z,37.47
2022-12-16T13:38:30.773Z,48.40
2022-12-16T13:41:21.639Z,38.90
2022-12-16T13:44:09.694Z,33.87
2022-12-16T13:47:02.074Z,39.47
2022-12-16T13:49:57.011Z,35.47
2022-12-16T13:52:50.474Z,32.83
2022-12-16T13:55:39.415Z,36.37
2022-12-16T13:58:29.865Z,30.03
2022-12-16T14:01:24.086Z,35.20
2022-12-16T14:04:12.101Z,32.87
2022-12-16T14:07:02.364Z,33.83
2022-12-16T14:09:56.887Z,33.20
2022-12-16T14:12:58.693Z,34.87
2022-12-16T14:15:55.875Z,36.20
2022-12-16T14:18:56.409Z,34.53
2022-12-16T14:21:48.349Z,36.30
2022-12-16T14:24:40.785Z,36.33
2022-12-16T14:27:41.371Z,32.10
2022-12-16T14:30:37.049Z,33.27
2022-12-16T14:33:42.449Z,32.43
2022-12-16T14:36:43.105Z,36.77
2022-12-16T14:40:01.579Z,34.70
2022-12-16T14:42:49.441Z,34.37
2022-12-16T14:46:03.381Z,39.90
2022-12-16T14:48:57.082Z,35.40
2022-12-16T14:51:45.579Z,32.50
2022-12-16T14:54:54.488Z,35.93
2022-12-16T14:57:59.371Z,38.03
2022-12-16T15:00:46.365Z,34.87
2022-12-16T15:03:36.193Z,37.40
2022-12-16T15:06:24.669Z,45.07
2022-12-16T15:09:16.038Z,35.73
2022-12-16T15:12:03.244Z,41.13
2022-12-16T15:14:50.832Z,35.10
2022-12-16T15:17:42.603Z,35.77
2022-12-16T15:20:36.654Z,50.00
2022-12-16T15:23:23.407Z,42.83
2022-12-16T15:26:13.387Z,36.20
2022-12-16T15:29:01.709Z,33.70
2022-12-16T15:32:06.241Z,37.20
2022-12-16T15:34:58.271Z,33.10
2022-12-16T15:37:49.847Z,39.30
2022-12-16T15:40:39.396Z,40.10
2022-12-16T15:43:26.059Z,35.43
2022-12-16T15:46:32.107Z,35.40
2022-12-16T15:49:18.122Z,42.80
2022-12-16T15:52:06.170Z,42.70
2022-12-16T15:54:53.124Z,42.60
2022-12-16T15:57:47.434Z,49.60
2022-12-16T16:00:50.251Z,43.83
2022-12-16T16:03:49.000Z,42.43
2022-12-16T16:06:35.440Z,69.90
2022-12-16T16:09:31.412Z,54.33
2022-12-16T16:12:18.215Z,42.80
2022-12-16T16:15:12.407Z,45.03
2022-12-16T16:17:59.985Z,52.73
2022-12-16T16:20:46.669Z,50.00
2022-12-16T16:23:33.551Z,47.77
2022-12-16T16:26:20.889Z,43.07
2022-12-16T16:29:07.374Z,50.70
2022-12-16T16:31:55.490Z,56.17
2022-12-16T16:34:43.687Z,52.50
2022-12-16T16:37:32.890Z,45.97
2022-12-16T16:40:19.467Z,51.20
2022-12-16T16:43:20.113Z,42.37
2022-12-16T16:46:11.795Z,39.00
2022-12-16T16:48:58.149Z,45.30
2022-12-16T16:51:44.898Z,44.87
2022-12-16T16:54:31.490Z,43.67
2022-12-16T16:57:20.135Z,50.10
2022-12-16T17:00:06.352Z,47.27
2022-12-16T17:02:52.671Z,46.07
2022-12-16T17:05:38.951Z,42.80
2022-12-16T17:08:25.416Z,43.50
2022-12-16T17:11:11.831Z,44.13
2022-12-16T17:13:58.075Z,50.90
2022-12-16T17:16:44.916Z,48.37
2022-12-16T17:19:31.440Z,41.43
2022-12-16T17:22:17.532Z,41.07
2022-12-16T17:25:04.292Z,43.43
2022-12-16T17:27:51.334Z,46.30
2022-12-16T17:30:44.866Z,47.60
2022-12-16T17:33:34.105Z,53.73
2022-12-16T17:36:20.916Z,47.63
2022-12-16T17:39:07.440Z,45.00
2022-12-16T17:41:53.986Z,47.50
2022-12-16T17:44:41.399Z,48.37
2022-12-16T17:47:27.870Z,49.30
2022-12-16T17:50:14.494Z,51.90
2022-12-16T17:53:01.487Z,46.17
2022-12-16T17:55:47.834Z,56.13
2022-12-16T17:58:34.255Z,48.80
2022-12-16T18:01:24.934Z,54.13
2022-12-16T18:04:11.368Z,54.60
2022-12-16T18:06:57.878Z,66.27
2022-12-16T18:09:44.268Z,55.60
2022-12-16T18:12:30.571Z,54.27
2022-12-16T18:15:17.346Z,55.30
2022-12-16T18:18:03.713Z,53.87
2022-12-16T18:20:50.283Z,49.67
2022-12-16T18:23:36.910Z,51.63
2022-12-16T18:26:24.923Z,50.30
2022-12-16T18:29:11.872Z,42.50
2022-12-16T18:31:58.248Z,61.13
2022-12-16T18:35:04.291Z,61.17
2022-12-16T18:37:50.827Z,54.80
2022-12-16T18:40:37.435Z,49.27
2022-12-16T18:43:24.548Z,55.53
2022-12-16T18:46:11.944Z,51.73
2022-12-16T18:48:58.745Z,48.70
2022-12-16T18:51:45.558Z,43.47
2022-12-16T18:54:31.733Z,49.30
2022-12-16T18:57:18.384Z,51.20
2022-12-16T19:00:04.695Z,42.43
2022-12-16T19:02:51.240Z,43.33
2022-12-16T19:05:37.833Z,44.07
2022-12-16T19:08:25.114Z,40.63
2022-12-16T19:11:15.270Z,43.23
2022-12-16T19:14:01.562Z,45.47
2022-12-16T19:16:48.672Z,37.97
2022-12-16T19:19:40.137Z,49.00
2022-12-16T19:22:26.446Z,45.77
2022-12-16T19:25:12.697Z,53.00
2022-12-16T19:27:58.875Z,46.20
2022-12-16T19:30:45.369Z,46.23
2022-12-16T19:33:36.372Z,44.10
2022-12-16T19:36:22.706Z,45.10
2022-12-16T19:39:19.958Z,48.80
2022-12-16T19:42:06.404Z,41.63
2022-12-16T19:44:56.018Z,53.50
2022-12-16T19:47:42.865Z,49.00
2022-12-16T19:50:29.211Z,50.90
2022-12-16T19:53:15.590Z,45.27
2022-12-16T19:56:02.220Z,49.27
2022-12-16T19:58:48.911Z,45.17
2022-12-16T20:01:35.622Z,50.83
2022-12-16T20:04:22.181Z,46.90
2022-12-16T20:07:09.469Z,45.20
2022-12-16T20:09:56.189Z,45.10
2022-12-16T20:12:42.911Z,50.70
2022-12-16T20:15:29.203Z,46.90
2022-12-16T20:18:15.476Z,47.90
2022-12-16T20:21:04.814Z,49.20
2022-12-16T20:23:51.675Z,55.43
2022-12-16T20:26:38.296Z,49.83
2022-12-16T20:29:24.528Z,54.40
2022-12-16T20:32:10.763Z,43.90
2022-12-16T20:34:56.934Z,48.90
2022-12-16T20:37:43.528Z,47.33
2022-12-16T20:40:29.897Z,48.47
2022-12-16T20:43:16.160Z,52.83
2022-12-16T20:46:06.195Z,49.10
2022-12-16T20:48:53.544Z,45.67
2022-12-16T20:51:42.991Z,43.37
2022-12-16T20:54:29.996Z,45.97
2022-12-16T20:57:16.605Z,42.60
2022-12-16T21:00:03.024Z,52.40
2022-12-16T21:02:50.264Z,45.77
2022-12-16T21:05:36.695Z,41.60
2022-12-16T21:08:23.189Z,49.10
2022-12-16T21:11:09.564Z,47.70
2022-12-16T21:13:56.387Z,43.27
2022-12-16T21:16:43.025Z,39.77
2022-12-16T21:19:33.327Z,44.73
2022-12-16T21:22:20.195Z,43.23
2022-12-16T21:25:06.533Z,43.43
2022-12-16T21:27:52.769Z,45.40
2022-12-16T21:30:39.543Z,42.20
2022-12-16T21:33:25.903Z,40.40
2022-12-16T21:36:12.950Z,43.60
2022-12-16T21:38:59.972Z,45.60
2022-12-16T21:41:46.334Z,48.53
2022-12-16T21:44:32.505Z,43.10
2022-12-16T21:47:18.653Z,42.40
2022-12-16T21:50:04.848Z,53.97
2022-12-16T21:52:50.992Z,49.27
2022-12-16T21:55:38.278Z,44.83
2022-12-16T21:58:29.198Z,39.37
2022-12-16T22:01:16.513Z,44.67
2022-12-16T22:04:02.890Z,42.60
2022-12-16T22:06:49.317Z,46.63
2022-12-16T22:09:36.238Z,42.40
2022-12-16T22:12:22.519Z,45.27
2022-12-16T22:15:09.435Z,41.07
2022-12-16T22:21:22.205Z,43.53
2022-12-16T22:24:08.437Z,48.00
2022-12-16T22:26:56.422Z,42.60
2022-12-16T22:29:43.350Z,43.33
2022-12-16T22:32:30.195Z,47.10
2022-12-16T22:35:16.605Z,45.20
2022-12-16T22:38:03.001Z,42.87
2022-12-16T22:40:49.189Z,40.30
2022-12-16T22:43:36.296Z,40.87
2022-12-16T22:46:23.526Z,44.67
2022-12-16T22:49:10.063Z,45.47
2022-12-16T22:51:56.895Z,41.83
2022-12-16T22:54:44.293Z,42.50
2022-12-16T22:57:31.292Z,37.83
2022-12-16T23:00:17.680Z,41.10
2022-12-16T23:03:03.889Z,41.00
2022-12-16T23:05:50.274Z,42.83
2022-12-16T23:08:37.286Z,52.50
2022-12-16T23:11:23.635Z,43.00
2022-12-16T23:14:10.060Z,38.27
2022-12-16T23:16:56.468Z,38.60
2022-12-16T23:19:42.890Z,41.40
2022-12-16T23:22:29.133Z,47.30
2022-12-16T23:25:15.524Z,39.70
2022-12-16T23:28:02.516Z,42.20
2022-12-16T23:30:49.218Z,43.57
2022-12-16T23:32:30.620Z,42.47
2022-12-16T23:33:36.336Z,45.50
2022-12-16T23:36:22.925Z,44.80
2022-12-16T23:39:09.687Z,43.37
2022-12-16T23:41:56.565Z,41.67
2022-12-16T23:44:42.812Z,38.07
2022-12-16T23:47:29.039Z,47.30
2022-12-16T23:50:16.029Z,43.00
2022-12-16T23:53:02.945Z,43.97
2022-12-16T23:55:49.451Z,43.40
2022-12-16T23:58:35.645Z,43.13
